Granite Canon, Wyoming
Current Conditions -  °F | °C
As of 2:56 PM on Monday 22 Dec 2014 (Local Time) from KFEW Reporting Station
Clear Clear  
Wind Chill: 17°   Ceiling: Unl
Heat Index: 30°   Visibility: 10mi
Dew Point: 19°   Wind: 21mph
Humidity: 64%   Direction: 340°NNW
Pressure: 29.62"   Gusts: 32mph
Location:  41.1°N, 105.14°W
Report Text: KFEW 222156Z AUTO 34018G28KT 10SM CLR M01/M07 A2962 RMK AO2 PK WND 34028/48 SLP058 T10111071 $
Loading
Personal Weather Stations






























Interactive Weather Map New forecast layout! Learn more

10-Day Weather Forecast

Advertisements
Track Severe Weather on mobile